Etusivu
METAR-TAF:

METAR-TAF

Lentoasemat :

Huippuvuorten lentoasema

Longyearbyen, Norja

Leveyspiiri: 78-15N, Pituuspiiri: 015-28E, korkeus merenpinnasta: 2 m

Tämänhetkinen sää

Tämä raportti tehtiin 21 minuuttia sitten, kello 13.20 UTC
Tuuli 3 kn idästä/kaakosta, vaihdellen idän ja etelän/kaakon välillä
Lämpötila -17°C
Kosteus 71%
Ilmanpaine 1013 hPa
Näkyvyys 10 km tai enemmän
Muutamia pilviä 1500 ft:n korkeudessa

METAR: ENSB 301320Z 12003KT 090V150 9999 FEW015 M17/M21 Q1013 RMK WIND 1400FT 00000KT

Aika: 15:41 (13:41 UTC)

Sääennuste

Ennuste voimassa 30. päivästä klo 12 UTC - 31. päivään klo 12 UTC
Tuuli 8 kn idästä/kaakosta
Näkyvyys 10 km tai enemmän
Muutamia pilviä 1500 ft:n korkeudessa
Ajoittain
31. päivästä klo 00 UTC - 31. päivään klo 12 UTC
Tuuli 18 kn idästä/kaakosta

TAF: ENSB 3012/3112 12008KT 9999 FEW015 TEMPO 3100/3112 12018KT

Säähavainnot ja -ennusteet yli 4000 lentoasemalta (METAR- ja TAF-raportit).

Käytössä olevat sääasemat on merkitty karttaan keltaisilla ja punaisilla pisteillä.

Aseta hiiri pisteen päälle nähdäksesi sääaseman nimen.

Klikkaa sitten nähdäksesi säähavainnot ja -ennusteet.

Kartan vaihtaminen: klikkaa mustalla rastilla varustettuja vihreitä pisteitä, niin voit zoomata sisään; viivalla varustettua vihreää pistettä, niin voit zoomata ulos tai vihreitä nuolia, niin pääset viereisille kartoille.


METAR-TAF: